createdAt,value
2018-12-04T00:02:07.249Z,49.03
2018-12-04T00:04:36.079Z,47.93
2018-12-04T00:07:05.106Z,48.50
2018-12-04T00:09:34.135Z,47.70
2018-12-04T00:12:03.495Z,48.23
2018-12-04T00:14:32.518Z,45.20
2018-12-04T00:17:01.364Z,45.03
2018-12-04T00:19:30.395Z,42.13
2018-12-04T00:21:59.383Z,39.77
2018-12-04T00:24:28.291Z,38.70
2018-12-04T00:26:57.228Z,37.93
2018-12-04T00:29:26.045Z,39.20
2018-12-04T00:31:55.066Z,39.50
2018-12-04T00:34:24.090Z,41.10
2018-12-04T00:36:52.990Z,40.27
2018-12-04T00:39:21.884Z,39.97
2018-12-04T00:41:50.954Z,41.47
2018-12-04T00:44:19.770Z,42.13
2018-12-04T00:46:48.596Z,42.33
2018-12-04T00:49:17.621Z,40.43
2018-12-04T00:51:46.431Z,39.33
2018-12-04T00:54:15.343Z,39.63
2018-12-04T00:56:44.389Z,40.43
2018-12-04T00:59:13.206Z,40.23
2018-12-04T01:01:42.072Z,41.37
2018-12-04T01:04:10.968Z,42.47
2018-12-04T01:06:39.859Z,41.63
2018-12-04T01:09:10.434Z,40.70
2018-12-04T01:11:39.741Z,40.47
2018-12-04T01:14:08.774Z,41.47
2018-12-04T01:16:37.712Z,40.67
2018-12-04T01:19:06.719Z,40.67
2018-12-04T01:21:35.754Z,40.47
2018-12-04T01:24:04.785Z,39.27
2018-12-04T01:26:33.699Z,38.97
2018-12-04T01:29:02.534Z,37.00
2018-12-04T01:31:31.484Z,37.03
2018-12-04T01:34:00.580Z,37.50
2018-12-04T01:36:29.385Z,37.23
2018-12-04T01:38:58.306Z,34.10
2018-12-04T01:41:27.313Z,33.80
2018-12-04T01:43:56.125Z,31.67
2018-12-04T01:46:25.154Z,31.90
2018-12-04T01:48:54.064Z,33.83
2018-12-04T01:51:23.015Z,32.30
2018-12-04T01:53:52.026Z,33.60
2018-12-04T01:56:20.917Z,32.80
2018-12-04T01:58:50.265Z,33.50
2018-12-04T02:01:19.070Z,32.17
2018-12-04T02:03:48.139Z,33.40
2018-12-04T02:06:17.073Z,33.93
2018-12-04T02:08:46.091Z,32.73
2018-12-04T02:11:15.025Z,33.13
2018-12-04T02:13:44.040Z,35.50
2018-12-04T02:16:12.867Z,34.17
2018-12-04T02:18:41.777Z,34.37
2018-12-04T02:21:10.689Z,34.80
2018-12-04T02:23:41.864Z,33.07
2018-12-04T02:26:10.804Z,34.43
2018-12-04T02:28:40.597Z,33.97
2018-12-04T02:31:10.328Z,32.90
2018-12-04T02:33:39.158Z,31.67
2018-12-04T02:36:08.725Z,31.40
2018-12-04T02:38:37.970Z,32.30
2018-12-04T02:41:07.526Z,32.50
2018-12-04T02:43:36.441Z,34.50
2018-12-04T02:46:05.358Z,31.90
2018-12-04T02:48:38.255Z,34.90
2018-12-04T02:51:07.380Z,34.77
2018-12-04T02:53:36.295Z,33.67
2018-12-04T02:56:05.292Z,35.23
2018-12-04T02:58:34.398Z,33.17
2018-12-04T03:01:03.300Z,35.37
2018-12-04T03:03:32.190Z,34.33
2018-12-04T03:06:01.083Z,33.77
2018-12-04T03:08:29.982Z,34.80
2018-12-04T03:10:58.886Z,35.60
2018-12-04T03:13:27.980Z,34.47
2018-12-04T03:15:56.777Z,35.43
2018-12-04T03:18:25.680Z,34.97
2018-12-04T03:20:54.512Z,36.63
2018-12-04T03:23:23.409Z,36.37
2018-12-04T03:25:52.306Z,34.17
2018-12-04T03:28:21.207Z,35.00
2018-12-04T03:30:50.107Z,36.03
2018-12-04T03:33:40.130Z,35.10
2018-12-04T03:36:09.048Z,34.93
2018-12-04T03:38:37.836Z,36.03
2018-12-04T03:41:06.761Z,38.17
2018-12-04T03:43:35.665Z,37.33
2018-12-04T03:46:04.623Z,39.97
2018-12-04T03:48:33.512Z,38.37
2018-12-04T03:51:02.370Z,38.67
2018-12-04T03:53:31.367Z,38.37
2018-12-04T03:56:00.178Z,39.13
2018-12-04T03:58:29.090Z,39.47
2018-12-04T04:00:58.123Z,38.17
2018-12-04T04:03:26.942Z,38.33
2018-12-04T04:05:55.865Z,38.87
2018-12-04T04:08:24.814Z,37.43
2018-12-04T04:10:53.649Z,37.67
2018-12-04T04:13:22.664Z,39.20
2018-12-04T04:15:51.602Z,39.13
2018-12-04T04:18:20.622Z,41.20
2018-12-04T04:20:49.499Z,39.17
2018-12-04T04:23:18.381Z,38.40
2018-12-04T04:25:47.295Z,38.10
2018-12-04T04:28:16.407Z,39.37
2018-12-04T04:30:45.445Z,38.83
2018-12-04T04:33:14.253Z,41.20
2018-12-04T04:35:43.169Z,39.40
2018-12-04T04:38:12.073Z,38.87
2018-12-04T04:40:41.023Z,38.90
2018-12-04T04:43:09.920Z,40.10
2018-12-04T04:45:38.966Z,37.63
2018-12-04T04:48:07.970Z,40.03
2018-12-04T04:50:36.869Z,39.13
2018-12-04T04:53:05.683Z,38.13
2018-12-04T04:55:34.589Z,38.80
2018-12-04T04:58:03.522Z,38.67
2018-12-04T05:00:32.329Z,37.83
2018-12-04T05:03:01.138Z,38.03
2018-12-04T05:05:34.566Z,39.13
2018-12-04T05:08:03.529Z,39.13
2018-12-04T05:10:32.457Z,40.20
2018-12-04T05:13:01.405Z,39.07
2018-12-04T05:15:30.482Z,40.33
2018-12-04T05:17:59.309Z,41.73
2018-12-04T05:20:28.335Z,42.87
2018-12-04T05:22:57.373Z,43.60
2018-12-04T05:25:26.318Z,44.93
2018-12-04T05:27:55.141Z,43.00
2018-12-04T05:30:24.073Z,42.63
2018-12-04T05:32:52.876Z,42.43
2018-12-04T05:35:21.770Z,48.20
2018-12-04T05:37:50.778Z,50.03
2018-12-04T05:40:20.382Z,55.70
2018-12-04T05:42:49.460Z,54.10
2018-12-04T05:45:18.850Z,51.93
2018-12-04T05:47:47.661Z,50.27
2018-12-04T05:50:17.230Z,55.50
2018-12-04T05:52:56.012Z,61.23
2018-12-04T05:55:24.834Z,64.90
2018-12-04T05:57:53.737Z,67.57
2018-12-04T06:00:22.697Z,75.53
2018-12-04T06:02:51.601Z,85.07
2018-12-04T06:05:20.509Z,110.47
2018-12-04T06:07:49.469Z,117.53
2018-12-04T06:10:18.392Z,101.17
2018-12-04T06:12:47.195Z,92.67
2018-12-04T06:15:16.442Z,92.07
2018-12-04T06:17:45.401Z,102.53
2018-12-04T06:20:14.469Z,107.57
2018-12-04T06:22:43.549Z,97.50
2018-12-04T06:25:12.437Z,97.03
2018-12-04T06:27:41.367Z,96.17
2018-12-04T06:30:10.368Z,83.37
2018-12-04T06:32:39.460Z,73.90
2018-12-04T06:35:08.420Z,78.03
2018-12-04T06:37:37.375Z,76.20
2018-12-04T06:40:06.389Z,74.83
2018-12-04T06:42:35.386Z,71.73
2018-12-04T06:45:04.881Z,74.07
2018-12-04T06:47:33.857Z,71.97
2018-12-04T06:50:03.906Z,72.07
2018-12-04T06:52:33.015Z,74.13
2018-12-04T06:55:01.933Z,85.67
2018-12-04T06:57:31.863Z,88.07
2018-12-04T07:00:00.799Z,90.33
2018-12-04T07:02:29.919Z,86.33
2018-12-04T07:04:58.825Z,79.17
2018-12-04T07:07:27.731Z,70.13
2018-12-04T07:09:56.637Z,66.70
2018-12-04T07:12:25.565Z,58.87
2018-12-04T07:14:54.681Z,56.80
2018-12-04T07:17:23.483Z,54.77
2018-12-04T07:19:52.505Z,53.13
2018-12-04T07:22:21.312Z,57.53
2018-12-04T07:24:50.212Z,57.33
2018-12-04T07:27:19.271Z,59.73
2018-12-04T07:29:48.165Z,65.40
2018-12-04T07:32:17.073Z,62.80
2018-12-04T07:34:45.881Z,62.53
2018-12-04T07:37:15.200Z,61.70
2018-12-04T07:39:44.298Z,51.80
2018-12-04T07:42:13.137Z,51.83
2018-12-04T07:44:41.959Z,49.20
2018-12-04T07:47:10.863Z,49.63
2018-12-04T07:49:39.811Z,49.47
2018-12-04T07:52:08.865Z,49.40
2018-12-04T07:54:37.653Z,50.73
2018-12-04T07:57:06.487Z,50.27
2018-12-04T07:59:35.365Z,55.87
2018-12-04T08:02:04.234Z,56.57
2018-12-04T08:04:33.256Z,51.10
2018-12-04T08:07:02.199Z,50.77
2018-12-04T08:09:31.268Z,52.10
2018-12-04T08:12:00.274Z,47.97
2018-12-04T08:14:29.271Z,45.10
2018-12-04T08:16:58.215Z,43.90
2018-12-04T08:19:27.051Z,45.80
2018-12-04T08:21:55.907Z,47.00
2018-12-04T08:24:24.832Z,47.67
2018-12-04T08:26:53.647Z,44.63
2018-12-04T08:29:22.567Z,43.73
2018-12-04T08:31:51.567Z,42.20
2018-12-04T08:34:20.585Z,36.97
2018-12-04T08:36:49.522Z,36.67
2018-12-04T08:39:18.493Z,34.47
2018-12-04T08:41:47.410Z,36.80
2018-12-04T08:44:16.226Z,37.07
2018-12-04T08:46:45.151Z,35.43
2018-12-04T08:49:14.134Z,34.77
2018-12-04T08:51:42.966Z,34.17
2018-12-04T08:54:11.870Z,34.53
2018-12-04T08:56:40.884Z,33.73
2018-12-04T08:59:09.721Z,32.97
2018-12-04T09:01:38.539Z,34.57
2018-12-04T09:04:07.533Z,44.93
2018-12-04T09:06:36.648Z,37.87
2018-12-04T09:09:08.850Z,44.43
2018-12-04T09:11:37.680Z,42.30
2018-12-04T09:14:06.891Z,39.20
2018-12-04T09:16:35.838Z,41.07
2018-12-04T09:19:04.754Z,39.00
2018-12-04T09:21:33.861Z,41.33
2018-12-04T09:24:02.924Z,39.90
2018-12-04T09:26:32.007Z,31.07
2018-12-04T09:29:00.930Z,31.77
2018-12-04T09:31:29.859Z,33.77
2018-12-04T09:33:58.858Z,30.67
2018-12-04T09:36:27.801Z,37.80
2018-12-04T09:38:56.720Z,31.37
2018-12-04T09:41:32.239Z,42.90
2018-12-04T09:44:01.089Z,36.10
2018-12-04T09:46:30.145Z,38.30
2018-12-04T09:48:59.148Z,42.43
2018-12-04T09:51:28.185Z,42.13
2018-12-04T09:53:57.111Z,38.57
2018-12-04T09:56:26.141Z,38.20
2018-12-04T09:58:55.065Z,38.10
2018-12-04T10:01:24.026Z,39.67
2018-12-04T10:03:53.003Z,40.10
2018-12-04T10:06:21.937Z,37.50
2018-12-04T10:08:50.808Z,39.70
2018-12-04T10:11:19.729Z,48.27
2018-12-04T10:13:48.732Z,43.90
2018-12-04T10:16:17.667Z,45.33
2018-12-04T10:18:47.796Z,50.20
2018-12-04T10:21:16.912Z,48.80
2018-12-04T10:23:45.871Z,41.50
2018-12-04T10:26:14.931Z,38.13
2018-12-04T10:28:43.959Z,37.77
2018-12-04T10:31:12.982Z,42.77
2018-12-04T10:33:42.159Z,38.70
2018-12-04T10:36:12.052Z,35.47
2018-12-04T10:38:41.053Z,37.57
2018-12-04T10:41:10.250Z,50.67
2018-12-04T10:43:39.172Z,37.67
2018-12-04T10:46:08.065Z,40.17
2018-12-04T10:48:37.086Z,36.90
2018-12-04T10:51:06.230Z,37.10
2018-12-04T10:53:35.187Z,36.80
2018-12-04T10:56:04.131Z,34.50
2018-12-04T10:58:33.148Z,36.47
2018-12-04T11:01:06.545Z,35.03
2018-12-04T11:03:37.467Z,37.57
2018-12-04T11:06:06.947Z,35.07
2018-12-04T11:08:35.989Z,37.03
2018-12-04T11:11:04.785Z,34.83
2018-12-04T11:13:33.747Z,37.77
2018-12-04T11:16:03.017Z,39.80
2018-12-04T11:18:31.940Z,43.03
2018-12-04T11:21:01.647Z,40.17
2018-12-04T11:23:30.901Z,43.63
2018-12-04T11:25:59.755Z,42.67
2018-12-04T11:28:28.780Z,41.87
2018-12-04T11:30:57.792Z,34.50
2018-12-04T11:33:26.809Z,35.73
2018-12-04T11:35:55.811Z,36.23
2018-12-04T11:38:24.739Z,32.10
2018-12-04T11:40:53.918Z,29.63
2018-12-04T11:43:22.708Z,26.20
2018-12-04T11:45:51.663Z,25.83
2018-12-04T11:48:20.485Z,23.03
2018-12-04T11:50:49.383Z,25.47
2018-12-04T11:53:18.447Z,24.67
2018-12-04T11:55:47.321Z,23.10
2018-12-04T11:58:16.233Z,22.63
2018-12-04T12:00:45.201Z,21.40
2018-12-04T12:03:14.039Z,21.17
2018-12-04T12:05:42.968Z,21.00
2018-12-04T12:08:11.870Z,20.20
2018-12-04T12:10:40.744Z,20.83
2018-12-04T12:13:09.957Z,21.83
2018-12-04T12:15:39.009Z,23.03
2018-12-04T12:18:08.049Z,24.10
2018-12-04T12:20:36.858Z,26.47
2018-12-04T12:23:05.669Z,25.57
2018-12-04T12:25:34.575Z,24.67
2018-12-04T12:28:03.707Z,26.50
2018-12-04T12:30:33.309Z,28.33
2018-12-04T12:33:02.127Z,32.20
2018-12-04T12:35:31.174Z,32.77
2018-12-04T12:38:00.188Z,32.63
2018-12-04T12:40:31.208Z,27.87
2018-12-04T12:43:00.145Z,26.17
2018-12-04T12:45:29.133Z,26.37
2018-12-04T12:47:58.073Z,25.43
2018-12-04T12:50:26.920Z,30.10
2018-12-04T12:52:55.865Z,29.47
2018-12-04T12:55:24.941Z,32.50
2018-12-04T12:57:54.061Z,31.07
2018-12-04T13:00:23.001Z,29.23
2018-12-04T13:02:52.253Z,26.67
2018-12-04T13:05:21.281Z,25.57
2018-12-04T13:07:53.173Z,25.50
2018-12-04T13:10:22.242Z,25.07
2018-12-04T13:12:51.337Z,25.20
2018-12-04T13:15:20.452Z,26.27
2018-12-04T13:17:49.359Z,26.80
2018-12-04T13:20:19.234Z,26.30
2018-12-04T13:22:48.561Z,28.83
2018-12-04T13:25:17.498Z,30.57
2018-12-04T13:27:46.551Z,31.07
2018-12-04T13:30:15.804Z,30.10
2018-12-04T13:32:44.885Z,28.73
2018-12-04T13:35:13.757Z,30.67
2018-12-04T13:37:42.937Z,29.53
2018-12-04T13:40:13.341Z,28.60
2018-12-04T13:42:42.913Z,29.07
2018-12-04T13:45:12.291Z,28.60
2018-12-04T13:47:42.018Z,27.13
2018-12-04T13:50:11.732Z,29.13
2018-12-04T13:52:41.206Z,30.03
2018-12-04T13:55:10.330Z,29.10
2018-12-04T13:57:39.542Z,30.67
2018-12-04T14:00:09.172Z,29.80
2018-12-04T14:02:38.596Z,32.17
2018-12-04T14:05:09.008Z,32.20
2018-12-04T14:07:38.762Z,34.80
2018-12-04T14:10:09.268Z,36.33
2018-12-04T14:12:38.299Z,37.67
2018-12-04T14:15:07.660Z,39.40
2018-12-04T14:17:37.318Z,39.13
2018-12-04T14:20:07.959Z,41.40
2018-12-04T14:22:37.080Z,41.23
2018-12-04T14:25:06.330Z,44.73
2018-12-04T14:27:35.952Z,41.20
2018-12-04T14:30:08.877Z,43.60
2018-12-04T14:32:37.908Z,42.87
2018-12-04T14:35:07.063Z,44.87
2018-12-04T14:37:36.307Z,46.40
2018-12-04T14:40:06.310Z,48.30
2018-12-04T14:42:35.586Z,48.40
2018-12-04T14:45:05.768Z,50.27
2018-12-04T14:47:34.773Z,52.07
2018-12-04T14:50:05.098Z,50.13
2018-12-04T14:52:34.276Z,51.93
2018-12-04T14:55:03.726Z,54.23
2018-12-04T14:57:32.716Z,55.13
2018-12-04T15:00:02.066Z,53.97
2018-12-04T15:02:31.104Z,51.73
2018-12-04T15:05:00.686Z,49.73
2018-12-04T15:07:29.617Z,48.57
2018-12-04T15:09:58.900Z,51.03
2018-12-04T15:12:27.998Z,50.87
2018-12-04T15:14:57.092Z,53.47
2018-12-04T15:17:26.914Z,51.10
2018-12-04T15:19:56.316Z,51.40
2018-12-04T15:22:25.503Z,53.67
2018-12-04T15:24:54.983Z,54.07
2018-12-04T15:27:24.688Z,60.70
2018-12-04T15:29:54.253Z,63.03
2018-12-04T15:32:23.791Z,60.40
2018-12-04T15:34:53.623Z,69.50
2018-12-04T15:37:22.989Z,62.93
2018-12-04T15:39:52.802Z,64.90
2018-12-04T15:42:21.999Z,66.40
2018-12-04T15:44:51.527Z,73.67
2018-12-04T15:47:20.800Z,63.57
2018-12-04T15:49:50.400Z,78.77
2018-12-04T15:52:19.749Z,73.03
2018-12-04T15:54:48.781Z,73.53
2018-12-04T15:57:17.898Z,79.17
2018-12-04T15:59:47.110Z,81.07
2018-12-04T16:02:16.030Z,86.77
2018-12-04T16:04:45.465Z,85.73
2018-12-04T16:07:14.376Z,83.67
2018-12-04T16:09:43.248Z,87.30
2018-12-04T16:12:12.790Z,93.37
2018-12-04T16:14:41.728Z,103.97
2018-12-04T16:17:15.222Z,105.77
2018-12-04T16:19:41.626Z,98.47
2018-12-04T16:22:10.703Z,94.83
2018-12-04T16:24:39.761Z,99.83
2018-12-04T16:27:08.872Z,107.57
2018-12-04T16:29:37.909Z,115.33
2018-12-04T16:32:07.163Z,113.60
2018-12-04T16:34:36.733Z,103.07
2018-12-04T16:37:05.870Z,98.70
2018-12-04T16:39:34.959Z,101.20
2018-12-04T16:42:04.179Z,100.00
2018-12-04T16:44:33.329Z,101.10
2018-12-04T16:47:02.235Z,101.83
2018-12-04T16:49:31.153Z,115.80
2018-12-04T16:52:00.627Z,115.13
2018-12-04T16:54:30.086Z,119.33
2018-12-04T16:56:59.109Z,122.30
2018-12-04T16:59:28.465Z,137.63
2018-12-04T17:01:57.512Z,135.00
2018-12-04T17:04:26.468Z,133.50
2018-12-04T17:06:55.899Z,133.40
2018-12-04T17:09:25.302Z,134.13
2018-12-04T17:11:54.399Z,130.33
2018-12-04T17:14:23.496Z,130.10
2018-12-04T17:16:52.398Z,136.80
2018-12-04T17:19:21.462Z,147.23
2018-12-04T17:21:50.471Z,159.33
2018-12-04T17:24:19.572Z,169.43
2018-12-04T17:26:48.664Z,165.37
2018-12-04T17:29:17.681Z,171.23
2018-12-04T17:31:46.805Z,153.60
2018-12-04T17:34:16.126Z,144.63
2018-12-04T17:36:45.029Z,150.40
2018-12-04T17:39:14.022Z,144.43
2018-12-04T17:41:42.949Z,139.73
2018-12-04T17:44:12.166Z,152.73
2018-12-04T17:46:41.413Z,160.90
2018-12-04T17:49:10.473Z,162.73
2018-12-04T17:51:39.697Z,175.87
2018-12-04T17:54:08.511Z,190.67
2018-12-04T17:56:37.439Z,183.63
2018-12-04T17:59:06.490Z,169.27
2018-12-04T18:01:35.887Z,158.97
2018-12-04T18:04:04.861Z,149.33
2018-12-04T18:06:33.966Z,145.93
2018-12-04T18:09:04.873Z,138.60
2018-12-04T18:11:33.920Z,139.50
2018-12-04T18:14:03.013Z,138.50
2018-12-04T18:16:34.201Z,136.30
2018-12-04T18:19:05.275Z,134.13
2018-12-04T18:21:35.049Z,132.93
2018-12-04T18:24:04.984Z,134.87
2018-12-04T18:26:34.752Z,132.90
2018-12-04T18:29:04.770Z,136.23
2018-12-04T18:31:34.009Z,133.10
2018-12-04T18:34:03.374Z,142.13
2018-12-04T18:36:33.067Z,141.40
2018-12-04T18:39:02.263Z,137.97
2018-12-04T18:41:32.347Z,134.03
2018-12-04T18:44:02.221Z,129.50
2018-12-04T18:46:31.965Z,129.47
2018-12-04T18:49:00.963Z,126.53
2018-12-04T18:51:30.282Z,128.00
2018-12-04T18:53:59.281Z,124.37
2018-12-04T18:56:28.214Z,127.00
2018-12-04T18:58:57.329Z,109.97
2018-12-04T19:01:26.250Z,105.20
2018-12-04T19:03:55.100Z,99.77
2018-12-04T19:06:24.840Z,98.37
2018-12-04T19:08:53.752Z,93.17
2018-12-04T19:11:31.220Z,90.73
2018-12-04T19:14:00.110Z,93.87
2018-12-04T19:16:29.029Z,95.80
2018-12-04T19:18:57.982Z,99.20
2018-12-04T19:21:27.085Z,95.93
2018-12-04T19:23:55.903Z,88.13
2018-12-04T19:26:24.837Z,91.33
2018-12-04T19:28:53.959Z,90.77
2018-12-04T19:31:22.885Z,95.40
2018-12-04T19:33:52.773Z,91.67
2018-12-04T19:36:22.237Z,94.37
2018-12-04T19:38:52.617Z,89.70
2018-12-04T19:41:21.518Z,93.97
2018-12-04T19:43:56.339Z,93.23
2018-12-04T19:46:22.590Z,88.90
2018-12-04T19:48:51.905Z,85.07
2018-12-04T19:51:20.819Z,84.80
2018-12-04T19:53:49.900Z,92.07
2018-12-04T19:56:18.867Z,91.33
2018-12-04T19:58:47.774Z,89.63
2018-12-04T20:01:17.100Z,85.53
2018-12-04T20:03:46.002Z,88.67
2018-12-04T20:06:14.822Z,93.20
2018-12-04T20:08:52.166Z,98.77
2018-12-04T20:11:21.351Z,102.93
2018-12-04T20:13:50.467Z,99.93
2018-12-04T20:16:19.486Z,99.70
2018-12-04T20:18:48.425Z,106.67
2018-12-04T20:21:17.334Z,103.40
2018-12-04T20:23:46.785Z,100.10
2018-12-04T20:26:15.705Z,94.47
2018-12-04T20:28:44.756Z,89.30
2018-12-04T20:31:13.821Z,90.43
2018-12-04T20:33:43.116Z,88.63
2018-12-04T20:36:12.038Z,84.37
2018-12-04T20:38:41.837Z,85.17
2018-12-04T20:41:10.855Z,78.57
2018-12-04T20:43:40.093Z,79.83
2018-12-04T20:46:09.433Z,79.17
2018-12-04T20:48:38.378Z,77.73
2018-12-04T20:51:07.609Z,73.23
2018-12-04T20:53:36.422Z,67.97
2018-12-04T20:56:05.430Z,70.50
2018-12-04T20:58:34.336Z,67.30
2018-12-04T21:01:03.401Z,64.73
2018-12-04T21:03:32.605Z,62.17
2018-12-04T21:06:01.517Z,63.37
2018-12-04T21:08:30.517Z,61.30
2018-12-04T21:10:59.418Z,62.83
2018-12-04T21:13:28.448Z,61.57
2018-12-04T21:15:57.377Z,62.83
2018-12-04T21:18:26.381Z,66.00
2018-12-04T21:20:55.214Z,68.17
2018-12-04T21:23:24.129Z,70.23
2018-12-04T21:25:53.354Z,71.90
2018-12-04T21:28:22.842Z,68.53
2018-12-04T21:30:57.641Z,66.07
2018-12-04T21:33:32.169Z,64.43
2018-12-04T21:36:06.516Z,56.57
2018-12-04T21:38:40.981Z,56.13
2018-12-04T21:41:15.596Z,52.03
2018-12-04T21:43:50.043Z,51.57
2018-12-04T21:46:24.277Z,50.47
2018-12-04T21:48:53.199Z,48.57
2018-12-04T21:51:22.192Z,47.67
2018-12-04T21:53:50.998Z,47.77
2018-12-04T21:56:19.997Z,47.87
2018-12-04T21:58:49.102Z,47.47
2018-12-04T22:01:17.914Z,48.57
2018-12-04T22:03:47.068Z,47.33
2018-12-04T22:06:15.958Z,45.67
2018-12-04T22:08:44.801Z,45.53
2018-12-04T22:11:14.019Z,45.63
2018-12-04T22:13:42.934Z,45.03
2018-12-04T22:16:11.941Z,43.40
2018-12-04T22:18:40.866Z,44.23
2018-12-04T22:21:09.709Z,44.47
2018-12-04T22:23:38.590Z,42.70
2018-12-04T22:26:08.106Z,41.83
2018-12-04T22:28:37.026Z,43.57
2018-12-04T22:31:05.948Z,42.50
2018-12-04T22:33:34.843Z,41.77
2018-12-04T22:36:03.692Z,40.50
2018-12-04T22:38:32.727Z,42.83
2018-12-04T22:41:01.554Z,41.20
2018-12-04T22:43:30.566Z,42.77
2018-12-04T22:45:59.494Z,41.67
2018-12-04T22:48:28.412Z,41.13
2018-12-04T22:50:57.201Z,41.53
2018-12-04T22:53:26.001Z,42.57
2018-12-04T22:55:54.917Z,40.70
2018-12-04T22:58:23.826Z,40.60
2018-12-04T23:00:52.809Z,41.17
2018-12-04T23:03:23.477Z,41.93
2018-12-04T23:05:52.665Z,41.30
2018-12-04T23:08:21.506Z,41.37
2018-12-04T23:10:50.439Z,41.10
2018-12-04T23:13:19.393Z,38.60
2018-12-04T23:15:48.758Z,39.20
2018-12-04T23:18:17.561Z,39.10
2018-12-04T23:20:46.384Z,38.27
2018-12-04T23:23:15.384Z,38.73
2018-12-04T23:25:44.293Z,38.27
2018-12-04T23:28:13.204Z,37.53
2018-12-04T23:30:42.000Z,39.10
2018-12-04T23:33:10.822Z,38.33
2018-12-04T23:35:39.981Z,37.77
2018-12-04T23:38:08.832Z,39.30
2018-12-04T23:40:37.737Z,36.67
2018-12-04T23:43:06.556Z,38.63
2018-12-04T23:45:35.676Z,37.90
2018-12-04T23:48:04.708Z,37.07
2018-12-04T23:50:33.645Z,37.33
2018-12-04T23:53:02.543Z,38.77
2018-12-04T23:55:31.516Z,39.63
2018-12-04T23:58:00.579Z,39.17
